sensor_id;sensor_type;location;lat;lon;timestamp;P1;durP1;ratioP1;P2;durP2;ratioP2
38240;SDS011;24037;49.536;8.500;2022-09-12T00:02:02;10.38;;;7.40;;
38240;SDS011;24037;49.536;8.500;2022-09-12T00:04:28;13.48;;;8.07;;
38240;SDS011;24037;49.536;8.500;2022-09-12T00:06:55;11.80;;;8.30;;
38240;SDS011;24037;49.536;8.500;2022-09-12T00:09:21;20.50;;;8.88;;
38240;SDS011;24037;49.536;8.500;2022-09-12T00:11:47;14.98;;;7.50;;
38240;SDS011;24037;49.536;8.500;2022-09-12T00:14:14;15.30;;;7.28;;
38240;SDS011;24037;49.536;8.500;2022-09-12T00:16:42;16.05;;;9.25;;
38240;SDS011;24037;49.536;8.500;2022-09-12T00:19:09;17.05;;;9.00;;
38240;SDS011;24037;49.536;8.500;2022-09-12T00:21:36;13.52;;;7.25;;
38240;SDS011;24037;49.536;8.500;2022-09-12T00:24:04;11.40;;;6.90;;
38240;SDS011;24037;49.536;8.500;2022-09-12T00:26:31;13.80;;;7.57;;
38240;SDS011;24037;49.536;8.500;2022-09-12T00:28:57;14.35;;;7.50;;
38240;SDS011;24037;49.536;8.500;2022-09-12T00:31:24;14.55;;;7.60;;
38240;SDS011;24037;49.536;8.500;2022-09-12T00:33:51;12.25;;;7.30;;
38240;SDS011;24037;49.536;8.500;2022-09-12T00:36:20;11.60;;;7.05;;
38240;SDS011;24037;49.536;8.500;2022-09-12T00:38:48;10.98;;;7.80;;
38240;SDS011;24037;49.536;8.500;2022-09-12T00:41:17;10.50;;;8.32;;
38240;SDS011;24037;49.536;8.500;2022-09-12T00:43:46;11.57;;;7.05;;
38240;SDS011;24037;49.536;8.500;2022-09-12T00:49:00;12.38;;;7.88;;
38240;SDS011;24037;49.536;8.500;2022-09-12T00:51:49;10.25;;;7.22;;
38240;SDS011;24037;49.536;8.500;2022-09-12T00:54:21;16.30;;;8.52;;
38240;SDS011;24037;49.536;8.500;2022-09-12T00:56:52;12.95;;;7.68;;
38240;SDS011;24037;49.536;8.500;2022-09-12T01:02:17;12.82;;;7.63;;
38240;SDS011;24037;49.536;8.500;2022-09-12T01:04:44;14.63;;;8.77;;
38240;SDS011;24037;49.536;8.500;2022-09-12T01:07:12;11.15;;;7.45;;
38240;SDS011;24037;49.536;8.500;2022-09-12T01:09:40;11.63;;;7.90;;
38240;SDS011;24037;49.536;8.500;2022-09-12T01:12:08;12.80;;;8.52;;
38240;SDS011;24037;49.536;8.500;2022-09-12T01:14:35;14.00;;;7.75;;
38240;SDS011;24037;49.536;8.500;2022-09-12T01:17:02;13.45;;;7.63;;
38240;SDS011;24037;49.536;8.500;2022-09-12T01:25:27;13.65;;;7.95;;
38240;SDS011;24037;49.536;8.500;2022-09-12T01:28:22;15.95;;;6.93;;
38240;SDS011;24037;49.536;8.500;2022-09-12T01:31:21;12.20;;;7.88;;
38240;SDS011;24037;49.536;8.500;2022-09-12T01:33:56;15.50;;;8.18;;
38240;SDS011;24037;49.536;8.500;2022-09-12T01:36:57;14.27;;;9.25;;
38240;SDS011;24037;49.536;8.500;2022-09-12T01:39:55;13.85;;;8.23;;
38240;SDS011;24037;49.536;8.500;2022-09-12T01:42:33;12.85;;;8.15;;
38240;SDS011;24037;49.536;8.500;2022-09-12T01:45:15;12.52;;;7.53;;
38240;SDS011;24037;49.536;8.500;2022-09-12T01:47:49;11.07;;;7.60;;
38240;SDS011;24037;49.536;8.500;2022-09-12T01:50:29;16.95;;;8.68;;
38240;SDS011;24037;49.536;8.500;2022-09-12T01:55:53;11.30;;;7.03;;
38240;SDS011;24037;49.536;8.500;2022-09-12T01:58:41;11.10;;;7.43;;
38240;SDS011;24037;49.536;8.500;2022-09-12T02:01:30;13.60;;;8.30;;
38240;SDS011;24037;49.536;8.500;2022-09-12T02:04:01;14.75;;;9.07;;
38240;SDS011;24037;49.536;8.500;2022-09-12T02:06:51;17.85;;;8.77;;
38240;SDS011;24037;49.536;8.500;2022-09-12T02:12:37;17.58;;;9.60;;
38240;SDS011;24037;49.536;8.500;2022-09-12T02:15:11;10.23;;;7.78;;
38240;SDS011;24037;49.536;8.500;2022-09-12T02:17:42;12.93;;;8.48;;
38240;SDS011;24037;49.536;8.500;2022-09-12T02:20:25;14.25;;;7.75;;
38240;SDS011;24037;49.536;8.500;2022-09-12T02:22:59;13.90;;;8.95;;
38240;SDS011;24037;49.536;8.500;2022-09-12T02:25:26;12.50;;;8.77;;
38240;SDS011;24037;49.536;8.500;2022-09-12T02:28:00;15.52;;;8.75;;
38240;SDS011;24037;49.536;8.500;2022-09-12T02:30:34;15.98;;;8.93;;
38240;SDS011;24037;49.536;8.500;2022-09-12T02:33:19;16.45;;;8.60;;
38240;SDS011;24037;49.536;8.500;2022-09-12T02:35:57;13.57;;;8.70;;
38240;SDS011;24037;49.536;8.500;2022-09-12T02:38:42;13.18;;;8.57;;
38240;SDS011;24037;49.536;8.500;2022-09-12T02:41:11;12.27;;;8.00;;
38240;SDS011;24037;49.536;8.500;2022-09-12T02:43:40;13.35;;;7.75;;
38240;SDS011;24037;49.536;8.500;2022-09-12T02:46:07;13.10;;;8.13;;
38240;SDS011;24037;49.536;8.500;2022-09-12T02:48:39;18.38;;;8.60;;
38240;SDS011;24037;49.536;8.500;2022-09-12T02:51:08;13.13;;;8.25;;
38240;SDS011;24037;49.536;8.500;2022-09-12T02:53:36;13.60;;;8.77;;
38240;SDS011;24037;49.536;8.500;2022-09-12T02:56:04;12.07;;;9.27;;
38240;SDS011;24037;49.536;8.500;2022-09-12T02:58:35;12.57;;;8.40;;
38240;SDS011;24037;49.536;8.500;2022-09-12T03:03:37;12.95;;;7.30;;
38240;SDS011;24037;49.536;8.500;2022-09-12T03:06:34;13.45;;;8.07;;
38240;SDS011;24037;49.536;8.500;2022-09-12T03:09:12;14.43;;;8.30;;
38240;SDS011;24037;49.536;8.500;2022-09-12T03:12:18;12.57;;;7.65;;
38240;SDS011;24037;49.536;8.500;2022-09-12T03:23:05;13.63;;;8.20;;
38240;SDS011;24037;49.536;8.500;2022-09-12T03:25:54;13.73;;;8.35;;
38240;SDS011;24037;49.536;8.500;2022-09-12T03:28:25;11.93;;;7.20;;
38240;SDS011;24037;49.536;8.500;2022-09-12T03:30:52;11.45;;;7.05;;
38240;SDS011;24037;49.536;8.500;2022-09-12T03:33:21;11.45;;;7.05;;
38240;SDS011;24037;49.536;8.500;2022-09-12T03:35:48;13.93;;;8.85;;
38240;SDS011;24037;49.536;8.500;2022-09-12T03:38:15;13.20;;;8.07;;
38240;SDS011;24037;49.536;8.500;2022-09-12T03:40:42;13.50;;;7.22;;
38240;SDS011;24037;49.536;8.500;2022-09-12T03:43:08;11.70;;;7.05;;
38240;SDS011;24037;49.536;8.500;2022-09-12T03:45:36;12.27;;;7.50;;
38240;SDS011;24037;49.536;8.500;2022-09-12T03:48:03;12.02;;;7.80;;
38240;SDS011;24037;49.536;8.500;2022-09-12T03:50:30;11.88;;;7.25;;
38240;SDS011;24037;49.536;8.500;2022-09-12T03:53:00;15.95;;;8.35;;
38240;SDS011;24037;49.536;8.500;2022-09-12T03:55:27;12.95;;;8.02;;
38240;SDS011;24037;49.536;8.500;2022-09-12T03:57:53;10.73;;;7.80;;
38240;SDS011;24037;49.536;8.500;2022-09-12T04:00:20;10.57;;;6.15;;
38240;SDS011;24037;49.536;8.500;2022-09-12T04:02:46;15.38;;;8.18;;
38240;SDS011;24037;49.536;8.500;2022-09-12T04:05:13;11.18;;;7.50;;
38240;SDS011;24037;49.536;8.500;2022-09-12T04:07:39;12.07;;;7.38;;
38240;SDS011;24037;49.536;8.500;2022-09-12T04:10:05;10.23;;;7.57;;
38240;SDS011;24037;49.536;8.500;2022-09-12T04:12:32;11.48;;;7.57;;
38240;SDS011;24037;49.536;8.500;2022-09-12T04:15:00;14.85;;;8.68;;
38240;SDS011;24037;49.536;8.500;2022-09-12T04:17:26;12.30;;;7.55;;
38240;SDS011;24037;49.536;8.500;2022-09-12T04:19:52;15.02;;;7.97;;
38240;SDS011;24037;49.536;8.500;2022-09-12T04:22:18;11.45;;;7.95;;
38240;SDS011;24037;49.536;8.500;2022-09-12T04:24:45;13.23;;;7.57;;
38240;SDS011;24037;49.536;8.500;2022-09-12T04:27:11;10.90;;;6.88;;
38240;SDS011;24037;49.536;8.500;2022-09-12T04:29:37;15.50;;;10.00;;
38240;SDS011;24037;49.536;8.500;2022-09-12T04:32:04;12.90;;;8.18;;
38240;SDS011;24037;49.536;8.500;2022-09-12T04:34:30;16.00;;;8.60;;
38240;SDS011;24037;49.536;8.500;2022-09-12T04:36:57;11.32;;;7.65;;
38240;SDS011;24037;49.536;8.500;2022-09-12T04:39:23;13.75;;;7.95;;
38240;SDS011;24037;49.536;8.500;2022-09-12T04:41:49;15.98;;;7.90;;
38240;SDS011;24037;49.536;8.500;2022-09-12T04:44:16;11.18;;;7.72;;
38240;SDS011;24037;49.536;8.500;2022-09-12T04:46:44;11.68;;;7.47;;
38240;SDS011;24037;49.536;8.500;2022-09-12T04:49:11;12.32;;;8.40;;
38240;SDS011;24037;49.536;8.500;2022-09-12T04:51:39;14.13;;;8.98;;
38240;SDS011;24037;49.536;8.500;2022-09-12T04:54:11;15.65;;;8.85;;
38240;SDS011;24037;49.536;8.500;2022-09-12T04:56:40;13.90;;;9.00;;
38240;SDS011;24037;49.536;8.500;2022-09-12T04:59:09;12.27;;;7.55;;
38240;SDS011;24037;49.536;8.500;2022-09-12T05:01:36;13.57;;;8.02;;
38240;SDS011;24037;49.536;8.500;2022-09-12T05:04:02;13.73;;;8.63;;
38240;SDS011;24037;49.536;8.500;2022-09-12T05:06:29;14.90;;;9.27;;
38240;SDS011;24037;49.536;8.500;2022-09-12T05:08:57;11.88;;;8.23;;
38240;SDS011;24037;49.536;8.500;2022-09-12T05:11:25;13.20;;;8.07;;
38240;SDS011;24037;49.536;8.500;2022-09-12T05:13:54;12.07;;;7.57;;
38240;SDS011;24037;49.536;8.500;2022-09-12T05:16:20;12.10;;;7.22;;
38240;SDS011;24037;49.536;8.500;2022-09-12T05:18:47;11.50;;;6.95;;
38240;SDS011;24037;49.536;8.500;2022-09-12T05:21:16;11.77;;;7.47;;
38240;SDS011;24037;49.536;8.500;2022-09-12T05:23:44;15.43;;;7.63;;
38240;SDS011;24037;49.536;8.500;2022-09-12T05:26:13;14.88;;;7.22;;
38240;SDS011;24037;49.536;8.500;2022-09-12T05:28:40;13.38;;;9.00;;
38240;SDS011;24037;49.536;8.500;2022-09-12T05:31:10;13.68;;;8.27;;
38240;SDS011;24037;49.536;8.500;2022-09-12T05:33:38;13.77;;;8.45;;
38240;SDS011;24037;49.536;8.500;2022-09-12T05:36:08;13.98;;;9.30;;
38240;SDS011;24037;49.536;8.500;2022-09-12T05:38:36;16.48;;;9.35;;
38240;SDS011;24037;49.536;8.500;2022-09-12T05:41:07;14.27;;;9.10;;
38240;SDS011;24037;49.536;8.500;2022-09-12T05:43:35;11.20;;;7.75;;
38240;SDS011;24037;49.536;8.500;2022-09-12T05:46:07;14.35;;;8.68;;
38240;SDS011;24037;49.536;8.500;2022-09-12T05:48:38;11.70;;;7.50;;
38240;SDS011;24037;49.536;8.500;2022-09-12T05:51:15;9.60;;;6.35;;
38240;SDS011;24037;49.536;8.500;2022-09-12T05:53:47;10.35;;;6.32;;
38240;SDS011;24037;49.536;8.500;2022-09-12T05:56:17;8.70;;;6.78;;
38240;SDS011;24037;49.536;8.500;2022-09-12T05:58:49;11.30;;;6.78;;
38240;SDS011;24037;49.536;8.500;2022-09-12T06:01:18;13.43;;;7.57;;
38240;SDS011;24037;49.536;8.500;2022-09-12T06:03:49;11.38;;;7.43;;
38240;SDS011;24037;49.536;8.500;2022-09-12T06:06:17;12.73;;;8.63;;
38240;SDS011;24037;49.536;8.500;2022-09-12T06:08:46;13.50;;;8.48;;
38240;SDS011;24037;49.536;8.500;2022-09-12T06:11:14;14.02;;;10.18;;
38240;SDS011;24037;49.536;8.500;2022-09-12T06:13:45;15.82;;;8.60;;
38240;SDS011;24037;49.536;8.500;2022-09-12T06:16:13;19.70;;;10.00;;
38240;SDS011;24037;49.536;8.500;2022-09-12T06:18:45;17.07;;;9.47;;
38240;SDS011;24037;49.536;8.500;2022-09-12T06:21:19;14.02;;;9.00;;
38240;SDS011;24037;49.536;8.500;2022-09-12T06:23:47;11.75;;;8.15;;
38240;SDS011;24037;49.536;8.500;2022-09-12T06:26:14;12.82;;;8.52;;
38240;SDS011;24037;49.536;8.500;2022-09-12T06:28:42;11.93;;;8.82;;
38240;SDS011;24037;49.536;8.500;2022-09-12T06:31:10;11.57;;;7.30;;
38240;SDS011;24037;49.536;8.500;2022-09-12T06:33:39;13.43;;;8.20;;
38240;SDS011;24037;49.536;8.500;2022-09-12T06:36:11;11.02;;;7.57;;
38240;SDS011;24037;49.536;8.500;2022-09-12T06:38:39;10.63;;;7.28;;
38240;SDS011;24037;49.536;8.500;2022-09-12T06:41:07;11.70;;;7.35;;
38240;SDS011;24037;49.536;8.500;2022-09-12T06:43:35;13.63;;;8.13;;
38240;SDS011;24037;49.536;8.500;2022-09-12T06:46:01;10.43;;;7.45;;
38240;SDS011;24037;49.536;8.500;2022-09-12T06:48:28;11.60;;;7.05;;
38240;SDS011;24037;49.536;8.500;2022-09-12T06:50:58;11.48;;;6.88;;
38240;SDS011;24037;49.536;8.500;2022-09-12T06:53:27;10.60;;;7.10;;
38240;SDS011;24037;49.536;8.500;2022-09-12T06:56:07;13.23;;;7.97;;
38240;SDS011;24037;49.536;8.500;2022-09-12T06:58:34;10.70;;;7.57;;
38240;SDS011;24037;49.536;8.500;2022-09-12T07:01:11;12.25;;;7.88;;
38240;SDS011;24037;49.536;8.500;2022-09-12T07:03:39;13.60;;;8.38;;
38240;SDS011;24037;49.536;8.500;2022-09-12T07:06:10;13.48;;;8.15;;
38240;SDS011;24037;49.536;8.500;2022-09-12T07:11:15;11.77;;;9.27;;
38240;SDS011;24037;49.536;8.500;2022-09-12T07:13:43;12.65;;;8.70;;
38240;SDS011;24037;49.536;8.500;2022-09-12T07:16:10;11.52;;;7.97;;
38240;SDS011;24037;49.536;8.500;2022-09-12T07:18:38;10.88;;;7.75;;
38240;SDS011;24037;49.536;8.500;2022-09-12T07:21:13;11.90;;;9.35;;
38240;SDS011;24037;49.536;8.500;2022-09-12T07:23:40;10.75;;;8.25;;
38240;SDS011;24037;49.536;8.500;2022-09-12T07:26:09;13.00;;;8.50;;
38240;SDS011;24037;49.536;8.500;2022-09-12T07:28:36;14.77;;;8.88;;
38240;SDS011;24037;49.536;8.500;2022-09-12T07:33:36;10.82;;;7.72;;
38240;SDS011;24037;49.536;8.500;2022-09-12T07:36:05;11.50;;;8.63;;
38240;SDS011;24037;49.536;8.500;2022-09-12T07:38:33;12.25;;;7.97;;
38240;SDS011;24037;49.536;8.500;2022-09-12T07:40:59;12.82;;;8.30;;
38240;SDS011;24037;49.536;8.500;2022-09-12T07:43:26;11.93;;;8.60;;
38240;SDS011;24037;49.536;8.500;2022-09-12T07:45:53;10.80;;;7.05;;
38240;SDS011;24037;49.536;8.500;2022-09-12T07:48:20;10.70;;;8.52;;
38240;SDS011;24037;49.536;8.500;2022-09-12T07:50:46;11.32;;;8.98;;
38240;SDS011;24037;49.536;8.500;2022-09-12T07:53:15;13.52;;;8.45;;
38240;SDS011;24037;49.536;8.500;2022-09-12T07:55:41;10.45;;;7.88;;
38240;SDS011;24037;49.536;8.500;2022-09-12T07:58:07;10.05;;;7.55;;
38240;SDS011;24037;49.536;8.500;2022-09-12T08:00:34;9.02;;;7.38;;
38240;SDS011;24037;49.536;8.500;2022-09-12T08:03:02;11.20;;;7.75;;
38240;SDS011;24037;49.536;8.500;2022-09-12T08:05:29;9.65;;;7.78;;
38240;SDS011;24037;49.536;8.500;2022-09-12T08:07:55;13.15;;;8.43;;
38240;SDS011;24037;49.536;8.500;2022-09-12T08:10:21;10.27;;;7.45;;
38240;SDS011;24037;49.536;8.500;2022-09-12T08:12:47;8.80;;;7.35;;
38240;SDS011;24037;49.536;8.500;2022-09-12T08:15:14;9.55;;;6.93;;
38240;SDS011;24037;49.536;8.500;2022-09-12T08:17:42;11.43;;;6.70;;
38240;SDS011;24037;49.536;8.500;2022-09-12T08:20:08;9.90;;;6.95;;
38240;SDS011;24037;49.536;8.500;2022-09-12T08:22:34;8.75;;;6.50;;
38240;SDS011;24037;49.536;8.500;2022-09-12T08:25:00;8.65;;;6.40;;
38240;SDS011;24037;49.536;8.500;2022-09-12T08:27:26;8.15;;;6.05;;
38240;SDS011;24037;49.536;8.500;2022-09-12T08:29:52;7.13;;;5.72;;
38240;SDS011;24037;49.536;8.500;2022-09-12T08:32:19;8.18;;;5.75;;
38240;SDS011;24037;49.536;8.500;2022-09-12T08:34:46;8.23;;;6.13;;
38240;SDS011;24037;49.536;8.500;2022-09-12T08:37:12;6.47;;;5.35;;
38240;SDS011;24037;49.536;8.500;2022-09-12T08:39:38;8.20;;;6.10;;
38240;SDS011;24037;49.536;8.500;2022-09-12T08:42:04;7.38;;;5.32;;
38240;SDS011;24037;49.536;8.500;2022-09-12T08:44:41;10.15;;;6.00;;
38240;SDS011;24037;49.536;8.500;2022-09-12T08:47:37;7.32;;;4.93;;
38240;SDS011;24037;49.536;8.500;2022-09-12T08:50:11;8.27;;;5.47;;
38240;SDS011;24037;49.536;8.500;2022-09-12T08:55:25;8.63;;;5.22;;
38240;SDS011;24037;49.536;8.500;2022-09-12T08:57:52;6.85;;;4.70;;
38240;SDS011;24037;49.536;8.500;2022-09-12T09:00:19;6.97;;;5.20;;
38240;SDS011;24037;49.536;8.500;2022-09-12T09:05:24;6.22;;;4.53;;
38240;SDS011;24037;49.536;8.500;2022-09-12T09:13:31;6.07;;;4.55;;
38240;SDS011;24037;49.536;8.500;2022-09-12T09:18:56;4.78;;;3.70;;
38240;SDS011;24037;49.536;8.500;2022-09-12T09:24:01;6.57;;;4.63;;
38240;SDS011;24037;49.536;8.500;2022-09-12T09:26:38;6.63;;;4.32;;
38240;SDS011;24037;49.536;8.500;2022-09-12T09:29:17;6.22;;;4.78;;
38240;SDS011;24037;49.536;8.500;2022-09-12T09:31:48;6.07;;;5.10;;
38240;SDS011;24037;49.536;8.500;2022-09-12T09:34:20;5.90;;;4.75;;
38240;SDS011;24037;49.536;8.500;2022-09-12T09:36:48;5.90;;;4.90;;
38240;SDS011;24037;49.536;8.500;2022-09-12T09:42:34;6.20;;;4.88;;
38240;SDS011;24037;49.536;8.500;2022-09-12T09:45:10;5.70;;;5.10;;
38240;SDS011;24037;49.536;8.500;2022-09-12T09:47:43;5.68;;;4.60;;
38240;SDS011;24037;49.536;8.500;2022-09-12T09:50:30;7.03;;;4.80;;
38240;SDS011;24037;49.536;8.500;2022-09-12T09:52:56;7.10;;;4.55;;
38240;SDS011;24037;49.536;8.500;2022-09-12T09:55:27;8.07;;;4.88;;
38240;SDS011;24037;49.536;8.500;2022-09-12T09:57:58;5.93;;;4.63;;
38240;SDS011;24037;49.536;8.500;2022-09-12T10:05:45;7.53;;;5.53;;
38240;SDS011;24037;49.536;8.500;2022-09-12T10:08:20;6.82;;;5.28;;
38240;SDS011;24037;49.536;8.500;2022-09-12T10:10:56;8.70;;;4.63;;
38240;SDS011;24037;49.536;8.500;2022-09-12T10:13:37;5.72;;;4.75;;
38240;SDS011;24037;49.536;8.500;2022-09-12T10:16:51;7.47;;;5.65;;
38240;SDS011;24037;49.536;8.500;2022-09-12T10:18:55;7.35;;;4.70;;
38240;SDS011;24037;49.536;8.500;2022-09-12T10:21:27;5.75;;;4.32;;
38240;SDS011;24037;49.536;8.500;2022-09-12T10:26:54;5.07;;;3.55;;
38240;SDS011;24037;49.536;8.500;2022-09-12T10:29:26;6.43;;;3.42;;
38240;SDS011;24037;49.536;8.500;2022-09-12T10:31:57;5.55;;;3.85;;
38240;SDS011;24037;49.536;8.500;2022-09-12T10:34:30;4.55;;;3.72;;
38240;SDS011;24037;49.536;8.500;2022-09-12T10:37:02;4.07;;;3.67;;
38240;SDS011;24037;49.536;8.500;2022-09-12T10:39:31;3.78;;;2.78;;
38240;SDS011;24037;49.536;8.500;2022-09-12T10:41:59;3.78;;;3.35;;
38240;SDS011;24037;49.536;8.500;2022-09-12T10:44:30;3.72;;;3.00;;
38240;SDS011;24037;49.536;8.500;2022-09-12T10:46:58;4.97;;;3.75;;
38240;SDS011;24037;49.536;8.500;2022-09-12T10:49:43;4.57;;;3.50;;
38240;SDS011;24037;49.536;8.500;2022-09-12T10:52:20;5.05;;;3.00;;
38240;SDS011;24037;49.536;8.500;2022-09-12T10:54:50;4.55;;;3.00;;
38240;SDS011;24037;49.536;8.500;2022-09-12T11:02:58;4.15;;;3.25;;
38240;SDS011;24037;49.536;8.500;2022-09-12T11:08:25;5.30;;;3.38;;
38240;SDS011;24037;49.536;8.500;2022-09-12T11:14:09;8.55;;;3.15;;
38240;SDS011;24037;49.536;8.500;2022-09-12T11:16:51;8.18;;;2.92;;
38240;SDS011;24037;49.536;8.500;2022-09-12T11:27:51;4.32;;;3.13;;
38240;SDS011;24037;49.536;8.500;2022-09-12T11:33:49;3.55;;;2.78;;
38240;SDS011;24037;49.536;8.500;2022-09-12T11:39:02;4.20;;;3.05;;
38240;SDS011;24037;49.536;8.500;2022-09-12T11:41:44;4.57;;;2.75;;
38240;SDS011;24037;49.536;8.500;2022-09-12T11:44:23;5.32;;;3.70;;
38240;SDS011;24037;49.536;8.500;2022-09-12T11:46:54;3.63;;;2.30;;
38240;SDS011;24037;49.536;8.500;2022-09-12T11:49:42;4.53;;;2.10;;
38240;SDS011;24037;49.536;8.500;2022-09-12T12:03:00;2.28;;;1.42;;
38240;SDS011;24037;49.536;8.500;2022-09-12T12:05:42;2.30;;;2.00;;
38240;SDS011;24037;49.536;8.500;2022-09-12T12:08:26;4.32;;;2.00;;
38240;SDS011;24037;49.536;8.500;2022-09-12T12:10:56;1.75;;;1.45;;
38240;SDS011;24037;49.536;8.500;2022-09-12T12:13:34;2.05;;;1.45;;
38240;SDS011;24037;49.536;8.500;2022-09-12T12:16:21;2.10;;;1.70;;
38240;SDS011;24037;49.536;8.500;2022-09-12T12:18:52;1.90;;;1.30;;
38240;SDS011;24037;49.536;8.500;2022-09-12T12:21:28;1.70;;;1.30;;
38240;SDS011;24037;49.536;8.500;2022-09-12T12:29:07;2.53;;;1.60;;
38240;SDS011;24037;49.536;8.500;2022-09-12T12:34:27;2.05;;;1.42;;
38240;SDS011;24037;49.536;8.500;2022-09-12T12:47:32;7.28;;;1.40;;
38240;SDS011;24037;49.536;8.500;2022-09-12T12:55:18;1.35;;;1.05;;
38240;SDS011;24037;49.536;8.500;2022-09-12T12:57:50;1.00;;;0.70;;
38240;SDS011;24037;49.536;8.500;2022-09-12T13:03:01;1.38;;;1.08;;
38240;SDS011;24037;49.536;8.500;2022-09-12T13:05:49;2.33;;;1.40;;
38240;SDS011;24037;49.536;8.500;2022-09-12T13:10:49;1.30;;;1.00;;
38240;SDS011;24037;49.536;8.500;2022-09-12T13:13:22;2.45;;;0.80;;
38240;SDS011;24037;49.536;8.500;2022-09-12T13:15:52;1.90;;;1.00;;
38240;SDS011;24037;49.536;8.500;2022-09-12T13:18:21;1.20;;;0.95;;
38240;SDS011;24037;49.536;8.500;2022-09-12T13:23:36;1.55;;;1.08;;
38240;SDS011;24037;49.536;8.500;2022-09-12T13:26:03;2.25;;;1.42;;
38240;SDS011;24037;49.536;8.500;2022-09-12T13:28:45;3.53;;;1.05;;
38240;SDS011;24037;49.536;8.500;2022-09-12T13:31:15;2.58;;;1.20;;
38240;SDS011;24037;49.536;8.500;2022-09-12T13:33:50;2.90;;;1.20;;
38240;SDS011;24037;49.536;8.500;2022-09-12T13:39:19;1.23;;;1.10;;
38240;SDS011;24037;49.536;8.500;2022-09-12T13:44:44;2.13;;;0.95;;
38240;SDS011;24037;49.536;8.500;2022-09-12T13:47:15;1.92;;;1.10;;
38240;SDS011;24037;49.536;8.500;2022-09-12T13:49:55;1.30;;;0.98;;
38240;SDS011;24037;49.536;8.500;2022-09-12T13:52:27;3.30;;;1.30;;
38240;SDS011;24037;49.536;8.500;2022-09-12T13:54:56;1.08;;;0.80;;
38240;SDS011;24037;49.536;8.500;2022-09-12T13:57:28;1.73;;;1.17;;
38240;SDS011;24037;49.536;8.500;2022-09-12T13:59:55;1.00;;;0.80;;
38240;SDS011;24037;49.536;8.500;2022-09-12T14:02:24;1.88;;;1.20;;
38240;SDS011;24037;49.536;8.500;2022-09-12T14:04:52;1.30;;;0.88;;
38240;SDS011;24037;49.536;8.500;2022-09-12T14:12:54;0.85;;;0.73;;
38240;SDS011;24037;49.536;8.500;2022-09-12T14:15:23;1.23;;;1.13;;
38240;SDS011;24037;49.536;8.500;2022-09-12T14:17:53;3.08;;;0.85;;
38240;SDS011;24037;49.536;8.500;2022-09-12T14:20:24;2.40;;;1.15;;
38240;SDS011;24037;49.536;8.500;2022-09-12T14:22:50;1.10;;;0.60;;
38240;SDS011;24037;49.536;8.500;2022-09-12T14:25:18;1.88;;;1.02;;
38240;SDS011;24037;49.536;8.500;2022-09-12T14:27:54;1.63;;;1.00;;
38240;SDS011;24037;49.536;8.500;2022-09-12T14:30:22;1.85;;;1.00;;
38240;SDS011;24037;49.536;8.500;2022-09-12T14:35:36;3.63;;;1.20;;
38240;SDS011;24037;49.536;8.500;2022-09-12T14:38:07;1.92;;;1.55;;
38240;SDS011;24037;49.536;8.500;2022-09-12T14:40:41;1.48;;;0.98;;
38240;SDS011;24037;49.536;8.500;2022-09-12T14:43:25;2.75;;;1.10;;
38240;SDS011;24037;49.536;8.500;2022-09-12T14:46:04;2.53;;;1.10;;
38240;SDS011;24037;49.536;8.500;2022-09-12T14:48:36;2.33;;;1.40;;
38240;SDS011;24037;49.536;8.500;2022-09-12T14:51:21;1.35;;;1.20;;
38240;SDS011;24037;49.536;8.500;2022-09-12T14:53:55;1.27;;;1.15;;
38240;SDS011;24037;49.536;8.500;2022-09-12T14:56:35;2.90;;;1.33;;
38240;SDS011;24037;49.536;8.500;2022-09-12T14:59:19;1.27;;;1.10;;
38240;SDS011;24037;49.536;8.500;2022-09-12T15:07:39;2.08;;;1.40;;
38240;SDS011;24037;49.536;8.500;2022-09-12T15:10:13;2.08;;;1.15;;
38240;SDS011;24037;49.536;8.500;2022-09-12T15:15:33;2.05;;;1.00;;
38240;SDS011;24037;49.536;8.500;2022-09-12T15:18:01;3.20;;;1.17;;
38240;SDS011;24037;49.536;8.500;2022-09-12T15:20:28;1.10;;;0.82;;
38240;SDS011;24037;49.536;8.500;2022-09-12T15:22:54;1.75;;;1.10;;
38240;SDS011;24037;49.536;8.500;2022-09-12T15:25:21;1.85;;;1.10;;
38240;SDS011;24037;49.536;8.500;2022-09-12T15:27:49;2.63;;;1.40;;
38240;SDS011;24037;49.536;8.500;2022-09-12T15:30:17;2.08;;;1.13;;
38240;SDS011;24037;49.536;8.500;2022-09-12T15:32:44;2.55;;;1.10;;
38240;SDS011;24037;49.536;8.500;2022-09-12T15:35:17;3.55;;;1.15;;
38240;SDS011;24037;49.536;8.500;2022-09-12T15:37:49;1.52;;;1.00;;
38240;SDS011;24037;49.536;8.500;2022-09-12T15:40:16;1.60;;;0.93;;
38240;SDS011;24037;49.536;8.500;2022-09-12T15:42:42;1.65;;;1.38;;
38240;SDS011;24037;49.536;8.500;2022-09-12T15:45:19;2.33;;;1.33;;
38240;SDS011;24037;49.536;8.500;2022-09-12T15:47:48;2.45;;;1.40;;
38240;SDS011;24037;49.536;8.500;2022-09-12T15:50:14;1.42;;;1.05;;
38240;SDS011;24037;49.536;8.500;2022-09-12T15:52:41;1.25;;;0.90;;
38240;SDS011;24037;49.536;8.500;2022-09-12T15:55:17;2.50;;;1.10;;
38240;SDS011;24037;49.536;8.500;2022-09-12T15:57:45;1.85;;;1.48;;
38240;SDS011;24037;49.536;8.500;2022-09-12T16:00:12;2.03;;;1.38;;
38240;SDS011;24037;49.536;8.500;2022-09-12T16:02:41;2.78;;;1.38;;
38240;SDS011;24037;49.536;8.500;2022-09-12T16:05:11;1.65;;;1.13;;
38240;SDS011;24037;49.536;8.500;2022-09-12T16:07:41;1.80;;;1.00;;
38240;SDS011;24037;49.536;8.500;2022-09-12T16:10:15;2.00;;;1.20;;
38240;SDS011;24037;49.536;8.500;2022-09-12T16:12:43;2.10;;;1.10;;
38240;SDS011;24037;49.536;8.500;2022-09-12T16:15:11;7.10;;;1.60;;
38240;SDS011;24037;49.536;8.500;2022-09-12T16:17:39;1.02;;;0.88;;
38240;SDS011;24037;49.536;8.500;2022-09-12T16:20:05;3.90;;;0.98;;
38240;SDS011;24037;49.536;8.500;2022-09-12T16:22:32;1.65;;;1.10;;
38240;SDS011;24037;49.536;8.500;2022-09-12T16:24:58;2.28;;;1.02;;
38240;SDS011;24037;49.536;8.500;2022-09-12T16:27:24;2.03;;;1.10;;
38240;SDS011;24037;49.536;8.500;2022-09-12T16:29:50;1.88;;;1.20;;
38240;SDS011;24037;49.536;8.500;2022-09-12T16:32:17;1.83;;;1.27;;
38240;SDS011;24037;49.536;8.500;2022-09-12T16:34:43;1.63;;;0.90;;
38240;SDS011;24037;49.536;8.500;2022-09-12T16:37:09;1.63;;;1.00;;
38240;SDS011;24037;49.536;8.500;2022-09-12T16:39:35;4.03;;;1.23;;
38240;SDS011;24037;49.536;8.500;2022-09-12T16:42:01;1.92;;;1.08;;
38240;SDS011;24037;49.536;8.500;2022-09-12T16:44:28;1.48;;;1.10;;
38240;SDS011;24037;49.536;8.500;2022-09-12T16:46:54;1.92;;;1.10;;
38240;SDS011;24037;49.536;8.500;2022-09-12T16:49:20;1.90;;;1.17;;
38240;SDS011;24037;49.536;8.500;2022-09-12T16:51:46;1.90;;;0.93;;
38240;SDS011;24037;49.536;8.500;2022-09-12T16:54:13;2.95;;;1.58;;
38240;SDS011;24037;49.536;8.500;2022-09-12T16:56:40;2.60;;;1.73;;
38240;SDS011;24037;49.536;8.500;2022-09-12T16:59:07;4.30;;;1.85;;
38240;SDS011;24037;49.536;8.500;2022-09-12T17:01:36;2.22;;;0.95;;
38240;SDS011;24037;49.536;8.500;2022-09-12T17:04:03;2.25;;;1.30;;
38240;SDS011;24037;49.536;8.500;2022-09-12T17:06:29;2.35;;;1.35;;
38240;SDS011;24037;49.536;8.500;2022-09-12T17:08:58;1.70;;;1.13;;
38240;SDS011;24037;49.536;8.500;2022-09-12T17:11:31;2.65;;;1.50;;
38240;SDS011;24037;49.536;8.500;2022-09-12T17:14:01;1.98;;;1.23;;
38240;SDS011;24037;49.536;8.500;2022-09-12T17:16:30;2.53;;;1.33;;
38240;SDS011;24037;49.536;8.500;2022-09-12T17:18:58;4.65;;;1.75;;
38240;SDS011;24037;49.536;8.500;2022-09-12T17:21:24;2.33;;;1.60;;
38240;SDS011;24037;49.536;8.500;2022-09-12T17:23:50;2.13;;;1.67;;
38240;SDS011;24037;49.536;8.500;2022-09-12T17:26:17;2.17;;;1.15;;
38240;SDS011;24037;49.536;8.500;2022-09-12T17:28:43;2.22;;;1.80;;
38240;SDS011;24037;49.536;8.500;2022-09-12T17:31:10;4.18;;;2.38;;
38240;SDS011;24037;49.536;8.500;2022-09-12T17:33:38;3.20;;;2.08;;
38240;SDS011;24037;49.536;8.500;2022-09-12T17:36:05;4.82;;;1.63;;